| Date | Time | Temp. (oF) | Dew Point (oF) | Rel. Hum. (%) | Press. (in.) | Wind Dir. (deg.) | Wind Speed (mph) | Hourly Rainfall (i n.) |
|
|---|---|---|---|---|---|---|---|---|---|
| 1 | 07/16 | 24:00 | 73 | 60 | 66 | 30.33 | 110 | 1 | 0.00 |
| 2 | 07/15 | 23:00 | 75 | 61 | 62 | 30.34 | 110 | 0 | 0.00 |
| 3 | 07/15 | 22:00 | 77 | 60 | 57 | 30.32 | 110 | 2 | 0.00 |
| 4 | 07/15 | 21:00 | 79 | 60 | 54 | 30.29 | 130 | 2 | 0.00 |
| 5 | 07/15 | 20:00 | 82 | 62 | 52 | 30.25 | 140 | 4 | 0.00 |
| 6 | 07/15 | 19:00 | 85 | 61 | 45 | 30.25 | 150 | 0 | 0.00 |
| 7 | 07/15 | 18:00 | 86 | 59 | 41 | 30.27 | 290 | 2 | 0.00 |
| 8 | 07/15 | 17:00 | 87 | 60 | 42 | 30.27 | 130 | 2 | 0.00 |
| 9 | 07/15 | 16:00 | 87 | 60 | 41 | 30.27 | 270 | 1 | 0.00 |
| 10 | 07/15 | 15:00 | 88 | 61 | 41 | 30.27 | 310 | 2 | 0.00 |
| 11 | 07/15 | 14:00 | 89 | 61 | 40 | 30.28 | 270 | 4 | 0.00 |
| 12 | 07/15 | 13:00 | 87 | 61 | 43 | 30.30 | 230 | 2 | 0.00 |
| 13 | 07/15 | 12:00 | 85 | 62 | 47 | 30.30 | 110 | 4 | 0.00 |
| 14 | 07/15 | 11:00 | 80 | 62 | 56 | 30.30 | 270 | 4 | 0.00 |
| 15 | 07/15 | 10:00 | 69 | 61 | 76 | 30.31 | 310 | 1 | 0.00 |
| 16 | 07/15 | 09:00 | 64 | 60 | 88 | 30.32 | 360 | 0 | 0.00 |
| 17 | 07/15 | 08:00 | 60 | 57 | 90 | 30.33 | 160 | 1 | 0.00 |
| 18 | 07/15 | 07:00 | 57 | 53 | 87 | 30.31 | 160 | 0 | 0.00 |
| 19 | 07/15 | 06:00 | 57 | 52 | 85 | 30.36 | 160 | 0 | 0.00 |
| 20 | 07/15 | 05:00 | 58 | 52 | 83 | 30.37 | 160 | 0 | 0.00 |
| 21 | 07/15 | 04:00 | 59 | 53 | 82 | 30.37 | 160 | 0 | 0.00 |
| 22 | 07/15 | 03:00 | 60 | 53 | 80 | 30.38 | 160 | 0 | 0.00 |
| 23 | 07/15 | 02:00 | 61 | 54 | 79 | 30.37 | 160 | 0 | 0.00 |
| 24 | 07/15 | 01:00 | 62 | 53 | 75 | 30.38 | 160 | 0 | 0.00 |